createdAt,value
2022-10-05T00:01:43.148Z,53.33
2022-10-05T00:04:17.275Z,53.24
2022-10-05T00:06:45.393Z,53.42
2022-10-05T00:09:16.216Z,53.10
2022-10-05T00:11:43.781Z,53.10
2022-10-05T00:14:23.944Z,52.89
2022-10-05T00:16:51.335Z,53.29
2022-10-05T00:19:24.376Z,53.43
2022-10-05T00:21:51.131Z,53.36
2022-10-05T00:24:19.443Z,53.21
2022-10-05T00:26:46.576Z,53.57
2022-10-05T00:29:21.989Z,53.47
2022-10-05T00:31:49.471Z,53.43
2022-10-05T00:34:16.977Z,53.10
2022-10-05T00:36:44.221Z,53.35
2022-10-05T00:39:11.501Z,53.45
2022-10-05T00:41:59.272Z,53.44
2022-10-05T00:44:47.195Z,53.41
2022-10-05T00:47:24.176Z,53.36
2022-10-05T00:49:51.182Z,53.36
2022-10-05T00:52:44.391Z,53.69
2022-10-05T00:55:29.578Z,53.74
2022-10-05T00:58:24.207Z,53.59
2022-10-05T01:00:51.274Z,53.68
2022-10-05T01:03:56.405Z,53.78
2022-10-05T01:06:35.999Z,53.28
2022-10-05T01:09:22.655Z,53.62
2022-10-05T01:11:58.034Z,53.65
2022-10-05T01:14:30.212Z,53.57
2022-10-05T01:17:08.558Z,53.80
2022-10-05T01:19:54.386Z,53.78
2022-10-05T01:22:47.650Z,53.57
2022-10-05T01:25:30.496Z,53.61
2022-10-05T01:28:12.250Z,54.05
2022-10-05T01:30:54.207Z,53.65
2022-10-05T01:33:39.680Z,53.66
2022-10-05T01:36:29.894Z,53.94
2022-10-05T01:39:18.542Z,53.53
2022-10-05T01:42:14.198Z,53.81
2022-10-05T01:44:46.165Z,53.63
2022-10-05T01:47:28.308Z,54.16
2022-10-05T01:50:01.973Z,53.96
2022-10-05T01:52:34.340Z,54.03
2022-10-05T01:55:40.133Z,53.96
2022-10-05T01:58:33.171Z,53.84
2022-10-05T02:01:25.255Z,53.83
2022-10-05T02:04:29.530Z,53.57
2022-10-05T02:07:02.337Z,53.73
2022-10-05T02:09:32.188Z,53.92
2022-10-05T02:12:01.112Z,53.81
2022-10-05T02:14:32.249Z,54.03
2022-10-05T02:16:59.534Z,54.05
2022-10-05T02:19:29.325Z,53.85
2022-10-05T02:22:04.936Z,53.76
2022-10-05T02:24:41.944Z,53.95
2022-10-05T02:27:09.747Z,54.02
2022-10-05T02:29:37.808Z,53.96
2022-10-05T02:32:07.091Z,54.07
2022-10-05T02:34:39.315Z,53.93
2022-10-05T02:37:25.152Z,54.14
2022-10-05T02:40:11.060Z,53.79
2022-10-05T02:42:49.759Z,53.62
2022-10-05T02:45:28.355Z,53.96
2022-10-05T02:48:28.935Z,54.04
2022-10-05T02:50:59.015Z,53.87
2022-10-05T02:53:39.572Z,54.02
2022-10-05T02:56:31.525Z,54.14
2022-10-05T02:59:07.873Z,53.88
2022-10-05T03:01:44.549Z,54.07
2022-10-05T03:04:40.802Z,54.20
2022-10-05T03:07:13.590Z,54.20
2022-10-05T03:10:00.938Z,53.87
2022-10-05T03:13:10.300Z,54.01
2022-10-05T03:16:03.179Z,54.00
2022-10-05T03:18:40.547Z,53.93
2022-10-05T03:21:16.528Z,54.03
2022-10-05T03:24:01.711Z,53.98
2022-10-05T03:26:52.755Z,54.01
2022-10-05T03:29:30.745Z,54.02
2022-10-05T03:32:01.368Z,54.04
2022-10-05T03:34:34.765Z,53.95
2022-10-05T03:37:15.643Z,53.88
2022-10-05T03:39:49.864Z,54.10
2022-10-05T03:42:20.766Z,54.09
2022-10-05T03:45:20.362Z,54.07
2022-10-05T03:47:50.838Z,54.10
2022-10-05T03:50:41.295Z,54.09
2022-10-05T03:53:42.229Z,54.28
2022-10-05T03:56:22.956Z,54.07
2022-10-05T03:59:08.500Z,54.36
2022-10-05T04:01:43.520Z,54.36
2022-10-05T04:04:12.599Z,54.17
2022-10-05T04:06:44.576Z,54.28
2022-10-05T04:09:15.286Z,54.49
2022-10-05T04:12:04.687Z,54.14
2022-10-05T04:14:36.297Z,54.10
2022-10-05T04:17:06.166Z,53.87
2022-10-05T04:20:01.181Z,54.07
2022-10-05T04:22:35.735Z,54.08
2022-10-05T04:25:16.710Z,54.15
2022-10-05T04:27:46.132Z,53.97
2022-10-05T04:30:18.184Z,54.29
2022-10-05T04:33:07.814Z,54.30
2022-10-05T04:35:40.437Z,54.35
2022-10-05T04:38:32.081Z,54.28
2022-10-05T04:41:09.567Z,54.50
2022-10-05T04:43:50.819Z,54.36
2022-10-05T04:46:44.273Z,54.39
2022-10-05T04:49:36.632Z,54.19
2022-10-05T04:52:18.628Z,54.20
2022-10-05T04:54:48.455Z,54.68
2022-10-05T04:57:23.449Z,54.47
2022-10-05T05:00:20.345Z,54.31
2022-10-05T05:03:08.580Z,54.41
2022-10-05T05:06:18.322Z,54.58
2022-10-05T05:09:03.629Z,54.45
2022-10-05T05:12:01.644Z,54.41
2022-10-05T05:15:10.304Z,54.49
2022-10-05T05:18:21.826Z,54.41
2022-10-05T05:21:03.061Z,54.26
2022-10-05T05:23:37.795Z,54.27
2022-10-05T05:26:26.475Z,54.49
2022-10-05T05:29:12.011Z,54.49
2022-10-05T05:32:04.922Z,54.57
2022-10-05T05:34:53.906Z,54.71
2022-10-05T05:37:42.777Z,54.51
2022-10-05T05:40:18.355Z,54.47
2022-10-05T05:43:08.266Z,54.58
2022-10-05T05:45:51.873Z,54.79
2022-10-05T05:48:24.544Z,54.90
2022-10-05T05:51:27.008Z,54.87
2022-10-05T05:54:13.716Z,55.02
2022-10-05T05:56:44.360Z,54.80
2022-10-05T05:59:14.699Z,54.95
2022-10-05T06:01:49.919Z,55.50
2022-10-05T06:04:22.046Z,55.12
2022-10-05T06:06:51.045Z,54.98
2022-10-05T06:09:39.913Z,54.94
2022-10-05T06:12:13.330Z,55.09
2022-10-05T06:14:43.460Z,55.06
2022-10-05T06:17:13.774Z,55.13
2022-10-05T06:19:40.627Z,55.10
2022-10-05T06:22:17.835Z,55.32
2022-10-05T06:25:10.184Z,55.01
2022-10-05T06:27:56.346Z,54.87
2022-10-05T06:30:23.465Z,54.80
2022-10-05T06:32:50.188Z,54.95
2022-10-05T06:35:32.107Z,54.84
2022-10-05T06:38:17.425Z,55.10
2022-10-05T06:40:47.216Z,55.10
2022-10-05T06:43:42.315Z,54.80
2022-10-05T06:46:10.844Z,54.98
2022-10-05T06:49:03.363Z,54.77
2022-10-05T06:51:38.640Z,54.89
2022-10-05T06:54:39.959Z,54.93
2022-10-05T06:57:09.800Z,54.91
2022-10-05T07:00:02.009Z,54.94
2022-10-05T07:02:31.817Z,54.96
2022-10-05T07:05:05.121Z,55.13
2022-10-05T07:07:50.674Z,55.28
2022-10-05T07:10:22.465Z,55.26
2022-10-05T07:13:26.276Z,55.23
2022-10-05T07:15:59.360Z,55.33
2022-10-05T07:18:44.925Z,55.25
2022-10-05T07:21:15.544Z,55.07
2022-10-05T07:23:51.204Z,55.10
2022-10-05T07:26:30.279Z,55.04
2022-10-05T07:29:23.399Z,54.99
2022-10-05T07:32:02.765Z,54.84
2022-10-05T07:34:50.695Z,54.78
2022-10-05T07:37:39.356Z,55.03
2022-10-05T07:40:13.264Z,54.81
2022-10-05T07:42:59.925Z,54.84
2022-10-05T07:45:28.292Z,54.66
2022-10-05T07:47:57.056Z,54.59
2022-10-05T07:50:40.662Z,54.51
2022-10-05T07:53:37.919Z,54.42
2022-10-05T07:56:33.422Z,54.59
2022-10-05T07:59:04.302Z,54.19
2022-10-05T08:01:33.466Z,54.44
2022-10-05T08:04:19.769Z,54.37
2022-10-05T08:06:51.200Z,54.32
2022-10-05T08:09:30.951Z,54.39
2022-10-05T08:12:20.885Z,54.17
2022-10-05T08:15:10.108Z,53.94
2022-10-05T08:17:44.288Z,54.12
2022-10-05T08:20:11.162Z,53.69
2022-10-05T08:22:42.076Z,54.02
2022-10-05T08:25:14.702Z,53.52
2022-10-05T08:28:03.309Z,53.36
2022-10-05T08:30:30.664Z,53.54
2022-10-05T08:33:05.753Z,53.53
2022-10-05T08:35:38.588Z,53.37
2022-10-05T08:38:38.395Z,53.26
2022-10-05T08:41:31.179Z,53.44
2022-10-05T08:44:32.690Z,52.98
2022-10-05T08:47:29.830Z,53.15
2022-10-05T08:50:24.346Z,52.71
2022-10-05T08:53:07.230Z,52.61
2022-10-05T08:56:22.258Z,52.62
2022-10-05T08:59:04.428Z,52.79
2022-10-05T09:01:59.393Z,52.37
2022-10-05T09:04:31.820Z,52.48
2022-10-05T09:07:05.513Z,52.41
2022-10-05T09:09:35.281Z,52.26
2022-10-05T09:12:15.172Z,52.25
2022-10-05T09:15:07.197Z,52.28
2022-10-05T09:17:57.992Z,51.85
2022-10-05T09:20:24.791Z,52.09
2022-10-05T09:23:14.640Z,51.90
2022-10-05T09:25:58.792Z,51.81
2022-10-05T09:28:34.910Z,51.71
2022-10-05T09:31:26.443Z,51.87
2022-10-05T09:34:31.055Z,51.51
2022-10-05T09:37:16.091Z,51.51
2022-10-05T09:40:13.902Z,51.11
2022-10-05T09:42:46.733Z,51.29
2022-10-05T09:45:28.625Z,50.97
2022-10-05T09:48:04.489Z,50.99
2022-10-05T09:50:44.294Z,50.95
2022-10-05T09:53:29.943Z,50.87
2022-10-05T09:59:38.032Z,50.49
2022-10-05T10:02:34.135Z,50.50
2022-10-05T10:05:09.223Z,50.26
2022-10-05T10:07:50.245Z,50.26
2022-10-05T10:10:29.338Z,50.20
2022-10-05T10:13:15.198Z,49.90
2022-10-05T10:16:00.815Z,49.86
2022-10-05T10:19:06.898Z,49.83
2022-10-05T10:22:05.534Z,49.53
2022-10-05T10:24:53.822Z,49.58
2022-10-05T10:27:38.877Z,49.44
2022-10-05T10:30:14.669Z,49.31
2022-10-05T10:33:13.807Z,49.66
2022-10-05T10:36:18.566Z,49.28
2022-10-05T10:39:18.761Z,49.43
2022-10-05T10:41:55.911Z,49.36
2022-10-05T10:44:38.037Z,49.60
2022-10-05T10:47:31.449Z,49.56
2022-10-05T10:50:26.334Z,49.30
2022-10-05T10:53:13.579Z,49.33
2022-10-05T10:55:59.323Z,49.36
2022-10-05T10:58:37.575Z,49.35
2022-10-05T11:01:28.847Z,49.29
2022-10-05T11:04:17.326Z,49.63
2022-10-05T11:06:49.083Z,49.27
2022-10-05T11:09:34.706Z,49.41
2022-10-05T11:12:39.883Z,49.32
2022-10-05T11:15:47.804Z,49.27
2022-10-05T11:18:23.788Z,49.02
2022-10-05T11:21:02.821Z,48.89
2022-10-05T11:23:39.127Z,48.89
2022-10-05T11:26:40.402Z,48.89
2022-10-05T11:29:17.294Z,48.92
2022-10-05T11:32:29.606Z,48.82
2022-10-05T11:35:05.319Z,48.63
2022-10-05T11:37:55.063Z,48.66
2022-10-05T11:40:47.759Z,48.66
2022-10-05T11:43:42.347Z,48.63
2022-10-05T11:46:31.008Z,48.58
2022-10-05T11:49:04.268Z,48.67
2022-10-05T11:52:13.127Z,48.82
2022-10-05T11:55:09.738Z,48.41
2022-10-05T11:58:27.160Z,48.38
2022-10-05T12:01:05.663Z,48.27
2022-10-05T12:03:43.539Z,48.42
2022-10-05T12:06:21.931Z,48.52
2022-10-05T12:09:02.395Z,48.21
2022-10-05T12:11:41.756Z,48.49
2022-10-05T12:14:20.688Z,48.37
2022-10-05T12:17:00.011Z,48.61
2022-10-05T12:19:36.728Z,48.63
2022-10-05T12:22:10.754Z,48.57
2022-10-05T12:24:37.602Z,48.40
2022-10-05T12:27:09.646Z,47.91
2022-10-05T12:29:39.449Z,47.99
2022-10-05T12:32:13.668Z,48.30
2022-10-05T12:34:49.322Z,48.43
2022-10-05T12:37:38.118Z,48.07
2022-10-05T12:40:12.897Z,48.22
2022-10-05T12:43:01.674Z,48.18
2022-10-05T12:45:50.445Z,47.89
2022-10-05T12:48:32.759Z,48.20
2022-10-05T12:50:59.526Z,48.23
2022-10-05T12:53:52.827Z,47.96
2022-10-05T12:56:44.766Z,47.90
2022-10-05T12:59:35.838Z,47.90
2022-10-05T13:02:44.612Z,47.99
2022-10-05T13:05:11.674Z,47.46
2022-10-05T13:07:48.452Z,47.99
2022-10-05T13:10:45.809Z,47.68
2022-10-05T13:13:37.546Z,47.78
2022-10-05T13:16:26.709Z,46.95
2022-10-05T13:19:24.755Z,47.31
2022-10-05T13:22:04.295Z,47.60
2022-10-05T13:24:31.819Z,47.65
2022-10-05T13:27:04.755Z,47.18
2022-10-05T13:29:34.873Z,47.59
2022-10-05T13:32:23.544Z,47.18
2022-10-05T13:35:06.684Z,47.25
2022-10-05T13:37:51.429Z,47.39
2022-10-05T13:40:35.702Z,47.40
2022-10-05T13:43:17.940Z,46.89
2022-10-05T13:45:55.685Z,47.20
2022-10-05T13:48:56.202Z,47.07
2022-10-05T13:52:01.298Z,46.90
2022-10-05T13:55:03.782Z,47.03
2022-10-05T13:57:53.345Z,46.95
2022-10-05T14:00:26.427Z,46.91
2022-10-05T14:02:56.411Z,47.24
2022-10-05T14:05:25.142Z,47.15
2022-10-05T14:08:02.210Z,47.00
2022-10-05T14:10:40.880Z,46.74
2022-10-05T14:13:21.273Z,47.18
2022-10-05T14:15:57.008Z,46.87
2022-10-05T14:18:24.929Z,46.69
2022-10-05T14:21:08.148Z,47.13
2022-10-05T14:23:35.157Z,46.53
2022-10-05T14:26:04.427Z,46.73
2022-10-05T14:28:33.993Z,46.65
2022-10-05T14:31:31.246Z,46.46
2022-10-05T14:34:23.338Z,46.18
2022-10-05T14:36:50.557Z,46.11
2022-10-05T14:39:17.596Z,46.60
2022-10-05T14:41:48.975Z,46.76
2022-10-05T14:44:16.192Z,46.71
2022-10-05T14:46:52.356Z,46.79
2022-10-05T14:49:37.332Z,46.80
2022-10-05T14:52:32.725Z,46.42
2022-10-05T14:55:04.416Z,46.88
2022-10-05T14:57:39.288Z,46.47
2022-10-05T15:00:14.367Z,46.83
2022-10-05T15:03:12.925Z,46.90
2022-10-05T15:05:41.576Z,46.31
2022-10-05T15:08:19.019Z,46.45
2022-10-05T15:11:03.443Z,46.82
2022-10-05T15:13:37.583Z,46.39
2022-10-05T15:16:24.814Z,46.40
2022-10-05T15:19:16.095Z,46.48
2022-10-05T15:21:43.210Z,46.66
2022-10-05T15:24:21.335Z,46.64
2022-10-05T15:26:55.791Z,46.70
2022-10-05T15:29:31.819Z,46.42
2022-10-05T15:32:06.823Z,46.45
2022-10-05T15:34:40.864Z,46.56
2022-10-05T15:37:26.369Z,46.88
2022-10-05T15:39:56.336Z,46.77
2022-10-05T15:42:30.155Z,46.70
2022-10-05T15:45:06.496Z,46.47
2022-10-05T15:48:10.979Z,46.72
2022-10-05T15:50:56.980Z,47.03
2022-10-05T15:53:33.347Z,46.96
2022-10-05T15:56:25.156Z,46.58
2022-10-05T15:59:18.520Z,46.91
2022-10-05T16:01:49.198Z,46.60
2022-10-05T16:04:26.046Z,46.83
2022-10-05T16:07:19.330Z,47.26
2022-10-05T16:09:50.017Z,47.08
2022-10-05T16:12:29.947Z,46.84
2022-10-05T16:15:18.672Z,47.15
2022-10-05T16:18:31.358Z,47.24
2022-10-05T16:21:09.567Z,46.97
2022-10-05T16:24:15.616Z,47.20
2022-10-05T16:26:42.370Z,47.14
2022-10-05T16:29:16.654Z,47.54
2022-10-05T16:31:57.381Z,47.47
2022-10-05T16:34:27.568Z,47.59
2022-10-05T16:37:14.918Z,47.54
2022-10-05T16:40:07.324Z,47.71
2022-10-05T16:42:53.582Z,47.79
2022-10-05T16:45:44.419Z,47.46
2022-10-05T16:48:17.679Z,47.61
2022-10-05T16:50:49.690Z,47.70
2022-10-05T16:53:22.538Z,48.14
2022-10-05T16:55:53.115Z,48.22
2022-10-05T16:58:23.771Z,47.91
2022-10-05T17:00:52.023Z,48.15
2022-10-05T17:03:24.740Z,47.98
2022-10-05T17:06:17.453Z,48.02
2022-10-05T17:08:53.592Z,48.15
2022-10-05T17:11:46.538Z,48.10
2022-10-05T17:14:32.042Z,48.08
2022-10-05T17:17:22.379Z,48.28
2022-10-05T17:20:17.557Z,48.41
2022-10-05T17:23:18.343Z,48.73
2022-10-05T17:25:48.509Z,48.06
2022-10-05T17:28:16.614Z,48.48
2022-10-05T17:31:12.754Z,48.45
2022-10-05T17:34:16.956Z,48.29
2022-10-05T17:37:15.919Z,48.14
2022-10-05T17:39:53.431Z,48.75
2022-10-05T17:42:26.650Z,48.79
2022-10-05T17:45:14.872Z,48.68
2022-10-05T17:48:03.277Z,48.88
2022-10-05T17:50:59.564Z,48.93
2022-10-05T17:54:03.589Z,49.10
2022-10-05T17:56:31.900Z,48.86
2022-10-05T17:59:00.624Z,48.71
2022-10-05T18:01:31.807Z,49.14
2022-10-05T18:04:16.150Z,48.78
2022-10-05T18:06:51.916Z,49.16
2022-10-05T18:09:30.728Z,49.28
2022-10-05T18:12:16.220Z,49.22
2022-10-05T18:15:01.909Z,48.88
2022-10-05T18:17:41.279Z,49.12
2022-10-05T18:20:30.187Z,49.44
2022-10-05T18:23:03.319Z,49.12
2022-10-05T18:25:33.313Z,49.20
2022-10-05T18:28:04.096Z,49.38
2022-10-05T18:30:38.944Z,49.37
2022-10-05T18:33:22.186Z,49.10
2022-10-05T18:36:14.096Z,49.28
2022-10-05T18:38:51.436Z,49.52
2022-10-05T18:41:23.222Z,49.06
2022-10-05T18:43:59.239Z,49.35
2022-10-05T18:46:26.335Z,49.32
2022-10-05T18:49:08.546Z,49.33
2022-10-05T18:51:52.823Z,49.54
2022-10-05T18:54:36.395Z,49.56
2022-10-05T18:57:41.058Z,49.35
2022-10-05T19:00:12.683Z,49.81
2022-10-05T19:02:43.003Z,49.69
2022-10-05T19:05:45.951Z,49.89
2022-10-05T19:08:10.745Z,49.49
2022-10-05T19:10:40.644Z,49.63
2022-10-05T19:13:18.912Z,49.66
2022-10-05T19:16:10.871Z,49.57
2022-10-05T19:19:08.764Z,49.74
2022-10-05T19:21:47.659Z,49.79
2022-10-05T19:24:18.937Z,49.92
2022-10-05T19:27:17.657Z,49.88
2022-10-05T19:30:05.102Z,49.75
2022-10-05T19:32:31.933Z,49.94
2022-10-05T19:35:32.596Z,49.80
2022-10-05T19:38:03.021Z,49.89
2022-10-05T19:40:36.678Z,49.87
2022-10-05T19:43:24.949Z,50.09
2022-10-05T19:46:19.114Z,50.25
2022-10-05T19:48:51.704Z,50.18
2022-10-05T19:51:33.692Z,49.88
2022-10-05T19:54:02.412Z,49.86
2022-10-05T19:56:33.547Z,50.07
2022-10-05T19:59:17.480Z,50.16
2022-10-05T20:01:49.563Z,50.07
2022-10-05T20:04:36.295Z,50.18
2022-10-05T20:07:03.468Z,50.11
2022-10-05T20:09:30.459Z,50.28
2022-10-05T20:11:57.280Z,50.27
2022-10-05T20:14:31.978Z,50.32
2022-10-05T20:17:49.979Z,50.09
2022-10-05T20:20:35.430Z,50.39
2022-10-05T20:23:24.774Z,50.12
2022-10-05T20:26:10.471Z,50.37
2022-10-05T20:28:37.434Z,50.14
2022-10-05T20:31:09.146Z,50.19
2022-10-05T20:33:35.972Z,50.36
2022-10-05T20:36:03.742Z,50.44
2022-10-05T20:38:31.638Z,50.54
2022-10-05T20:40:58.896Z,50.52
2022-10-05T20:43:25.769Z,50.64
2022-10-05T20:45:53.853Z,50.50
2022-10-05T20:48:20.708Z,50.57
2022-10-05T20:50:47.521Z,50.49
2022-10-05T20:53:14.538Z,50.67
2022-10-05T20:55:41.315Z,50.86
2022-10-05T20:58:09.088Z,50.86
2022-10-05T21:00:55.466Z,50.77
2022-10-05T21:03:22.877Z,50.58
2022-10-05T21:05:50.380Z,50.79
2022-10-05T21:08:17.852Z,50.63
2022-10-05T21:10:44.640Z,50.67
2022-10-05T21:13:11.624Z,50.83
2022-10-05T21:15:38.394Z,50.75
2022-10-05T21:18:05.228Z,50.67
2022-10-05T21:20:33.076Z,50.79
2022-10-05T21:22:59.874Z,50.66
2022-10-05T21:25:27.054Z,50.76
2022-10-05T21:27:54.272Z,50.65
2022-10-05T21:30:21.191Z,51.10
2022-10-05T21:32:48.081Z,50.99
2022-10-05T21:35:15.322Z,51.05
2022-10-05T21:37:42.141Z,51.03
2022-10-05T21:40:09.311Z,51.27
2022-10-05T21:42:36.632Z,51.27
2022-10-05T21:45:03.725Z,51.24
2022-10-05T21:47:30.512Z,51.39
2022-10-05T21:49:57.612Z,51.18
2022-10-05T21:52:24.693Z,51.64
2022-10-05T21:54:51.469Z,51.34
2022-10-05T21:57:18.668Z,51.05
2022-10-05T21:59:45.453Z,51.35
2022-10-05T22:02:12.240Z,51.42
2022-10-05T22:04:39.416Z,51.38
2022-10-05T22:07:18.563Z,51.57
2022-10-05T22:09:49.359Z,51.54
2022-10-05T22:12:16.284Z,51.23
2022-10-05T22:14:43.030Z,51.45
2022-10-05T22:17:14.217Z,51.32
2022-10-05T22:19:41.027Z,51.55
2022-10-05T22:22:11.783Z,51.48
2022-10-05T22:24:39.088Z,51.63
2022-10-05T22:27:05.904Z,51.72
2022-10-05T22:29:32.679Z,51.69
2022-10-05T22:31:59.848Z,51.71
2022-10-05T22:34:26.667Z,51.60
2022-10-05T22:36:53.493Z,51.36
2022-10-05T22:39:20.578Z,51.78
2022-10-05T22:41:47.349Z,51.64
2022-10-05T22:44:14.449Z,51.66
2022-10-05T22:46:41.522Z,51.89
2022-10-05T22:49:08.397Z,51.56
2022-10-05T22:51:35.186Z,51.77
2022-10-05T22:54:02.229Z,51.51
2022-10-05T22:56:29.066Z,51.45
2022-10-05T22:58:55.906Z,51.86
2022-10-05T23:01:23.036Z,52.03
2022-10-05T23:03:49.813Z,51.62
2022-10-05T23:06:20.426Z,51.72
2022-10-05T23:08:47.625Z,51.80
2022-10-05T23:11:19.300Z,52.00
2022-10-05T23:13:46.157Z,51.78
2022-10-05T23:16:17.987Z,51.59
2022-10-05T23:18:45.057Z,51.82
2022-10-05T23:21:11.880Z,51.95
2022-10-05T23:23:40.162Z,51.72
2022-10-05T23:26:07.900Z,51.80
2022-10-05T23:28:34.837Z,51.81
2022-10-05T23:31:03.322Z,51.73
2022-10-05T23:33:30.333Z,52.37
2022-10-05T23:36:13.110Z,52.13
2022-10-05T23:38:40.172Z,51.91
2022-10-05T23:41:07.545Z,51.79
2022-10-05T23:43:34.700Z,51.99
2022-10-05T23:46:02.144Z,52.00
2022-10-05T23:48:30.193Z,52.07
2022-10-05T23:50:57.774Z,52.19
2022-10-05T23:53:24.864Z,52.37
2022-10-05T23:55:54.896Z,52.20
2022-10-05T23:58:21.800Z,52.04
